Cooper Moran — WDI9156 — position and weather

sailwx.info

Track history (hours):
 
Tides and Currents Weather Stations Pressure Air Temp Water Temp Dewpoint Dewpoint Depression Visibility Wind Speed Wind Dir Waves Ship Positions

Cooper Moran

Owner: MORAN TOWING CORPORATION, New Canaan, CT. More information available from US FCC via Universal Licensing System and Coast Guard Vessel Documentation Center.

Last reported at 2018-Jun-22 01:00 UTC. Time now 2018-Jun-22 01:25 UTC.
Position N 32°08' W 081°08'.

Length 28 m; draft 5.2 m.

Type: Tug. MMSI: 367745820.

Date/timePositionNaut miles runAvg speedWind from/ knotsBaromVisibWave heightAir tempDewpointWater temp
2018-Jun-22 01:00N 32°08' W 081°08'0 0.4
2018-Jun-22 00:30N 32°08' W 081°08'1 2.9
2018-Jun-22 00:00N 32°07' W 081°07'2 3.0
2018-Jun-21 23:30N 32°06' W 081°06'0 0.0
2018-Jun-21 23:00N 32°06' W 081°06'0 0.0
2018-Jun-21 22:30N 32°06' W 081°06'2 4.2
2018-Jun-21 22:00N 32°07' W 081°08'1 1.6
2018-Jun-21 21:30N 32°07' W 081°07'1 1.0
2018-Jun-21 21:00N 32°06' W 081°07'2 4.1
2018-Jun-21 20:30N 32°08' W 081°08'0 0.9
2018-Jun-21 20:00N 32°08' W 081°08'1 1.3
2018-Jun-21 19:30N 32°07' W 081°08'4 7.7
2018-Jun-21 19:00N 32°05' W 081°04'0 0.6
2018-Jun-21 18:30N 32°05' W 081°04'1 1.1
2018-Jun-21 17:59N 32°05' W 081°03'0 0.1
2018-Jun-21 17:30N 32°05' W 081°03'1 1.6
2018-Jun-21 16:59N 32°05' W 081°02'0 0.6
2018-Jun-21 16:30N 32°05' W 081°02'1 2.4
2018-Jun-21 16:00N 32°05' W 081°04'0 0.0
2018-Jun-21 15:30N 32°05' W 081°04'0 0.0
2018-Jun-21 15:00N 32°05' W 081°04'0 0.0
2018-Jun-21 14:30N 32°05' W 081°04'0 0.0
2018-Jun-21 13:53N 32°05' W 081°04'0 0.0
2018-Jun-21 13:28N 32°05' W 081°04'0 0.0
2018-Jun-21 13:00N 32°05' W 081°04'0 0.0
2018-Jun-21 12:30N 32°05' W 081°04'0 0.0
2018-Jun-21 12:00N 32°05' W 081°04'2 3.4
2018-Jun-21 11:30N 32°05' W 081°06'3 6.9
2018-Jun-21 11:00N 32°08' W 081°08'0 0.3
2018-Jun-21 10:30N 32°08' W 081°08'0 0.8
2018-Jun-21 10:00N 32°08' W 081°09'0 0.0
2018-Jun-21 09:30N 32°08' W 081°09'3 6.2
2018-Jun-21 09:00N 32°06' W 081°06'2 4.6
2018-Jun-21 08:30N 32°05' W 081°04'0 0.0
2018-Jun-21 08:00N 32°05' W 081°04'0 0.0
2018-Jun-21 07:28N 32°05' W 081°04'0 0.0
2018-Jun-21 07:00N 32°05' W 081°04'0 0.0
2018-Jun-21 06:30N 32°05' W 081°04'0 0.0
2018-Jun-21 06:00N 32°05' W 081°04'0 0.0
2018-Jun-21 05:30N 32°05' W 081°04'0 0.0
2018-Jun-21 05:00N 32°05' W 081°04'0 0.0
2018-Jun-21 04:25N 32°05' W 081°04'0 0.0
2018-Jun-21 04:00N 32°05' W 081°04'0 0.0
2018-Jun-21 03:27N 32°05' W 081°04'0 0.6
2018-Jun-21 03:00N 32°05' W 081°04'4 7.8
2018-Jun-21 02:29N 32°07' W 081°08'0 0.1
2018-Jun-21 02:00N 32°07' W 081°08'0 0.2
2018-Jun-21 01:30N 32°07' W 081°08'0 0.0
2018-Jun-21 00:59N 32°07' W 081°08'0 0.0
2018-Jun-21 00:30N 32°07' W 081°08'0 0.0
2018-Jun-21 00:00N 32°07' W 081°08'0 0.0
2018-Jun-20 23:30N 32°07' W 081°08'0 0.0
2018-Jun-20 23:00N 32°07' W 081°08'0 0.0
2018-Jun-20 22:30N 32°07' W 081°08'0 0.0
2018-Jun-20 22:00N 32°07' W 081°08'0 0.9
2018-Jun-20 21:30N 32°08' W 081°08'0 0.5
2018-Jun-20 20:59N 32°08' W 081°08'1 2.6
2018-Jun-20 20:29N 32°07' W 081°07'2 4.4
2018-Jun-20 20:00N 32°05' W 081°06'2 3.3
2018-Jun-20 19:30N 32°05' W 081°04'0 0.0
2018-Jun-20 18:59N 32°05' W 081°04'0 0.0
2018-Jun-20 18:29N 32°05' W 081°04'0 0.0
2018-Jun-20 17:59N 32°05' W 081°04'0 0.0
2018-Jun-20 17:30N 32°05' W 081°04'0 0.0
2018-Jun-20 17:00N 32°05' W 081°04'0 0.0
2018-Jun-20 16:30N 32°05' W 081°04'0 0.0
2018-Jun-20 15:59N 32°05' W 081°04'0 0.0
2018-Jun-20 15:30N 32°05' W 081°04'0 0.0
2018-Jun-20 15:00N 32°05' W 081°04'0 0.0
2018-Jun-20 14:30N 32°05' W 081°04'0 0.0
2018-Jun-20 14:00N 32°05' W 081°04'0 0.0
2018-Jun-20 13:30N 32°05' W 081°04'0 0.0
2018-Jun-20 13:00N 32°05' W 081°04'0 0.0
2018-Jun-20 12:30N 32°05' W 081°04'0 0.0
2018-Jun-20 12:00N 32°05' W 081°04'0 0.0
2018-Jun-20 11:30N 32°05' W 081°04'0 0.0
2018-Jun-20 11:00N 32°05' W 081°04'0 0.0
2018-Jun-20 10:30N 32°05' W 081°04'0 0.0
2018-Jun-20 10:00N 32°05' W 081°04'0 0.0
2018-Jun-20 09:30N 32°05' W 081°04'0 0.0
2018-Jun-20 09:00N 32°05' W 081°04'0 0.0
2018-Jun-20 08:30N 32°05' W 081°04'0 0.0
2018-Jun-20 07:56N 32°05' W 081°04'0 0.0
2018-Jun-20 07:30N 32°05' W 081°04'0 0.0
2018-Jun-20 07:00N 32°05' W 081°04'0 0.0
2018-Jun-20 06:30N 32°05' W 081°04'0 0.0
2018-Jun-20 06:00N 32°05' W 081°04'0 0.0
2018-Jun-20 05:30N 32°05' W 081°04'0 0.0
2018-Jun-20 05:00N 32°05' W 081°04'1 2.3
2018-Jun-20 04:25N 32°05' W 081°05'3 7.2
2018-Jun-20 04:00N 32°07' W 081°08'1 2.9
2018-Jun-20 03:30N 32°08' W 081°08'0 0.2
2018-Jun-20 03:00N 32°08' W 081°09'3 5.7
2018-Jun-20 02:30N 32°06' W 081°07'3 5.5
2018-Jun-20 02:00N 32°05' W 081°04'0 0.0
2018-Jun-20 01:30N 32°05' W 081°04'0 0.0
2018-Jun-20 01:00N 32°05' W 081°04'0 0.0
2018-Jun-20 00:30N 32°05' W 081°04'0 0.0
2018-Jun-19 23:59N 32°05' W 081°04'0 0.0
2018-Jun-19 23:30N 32°05' W 081°04'0 0.0
2018-Jun-19 22:59N 32°05' W 081°04'0 0.0
2018-Jun-19 22:30N 32°05' W 081°04'0 0.0
2018-Jun-19 21:59N 32°05' W 081°04'0 0.0
2018-Jun-19 21:30N 32°05' W 081°04'0 0.0
2018-Jun-19 21:00N 32°05' W 081°04'0 0.0
2018-Jun-19 20:30N 32°05' W 081°04'0 0.1
2018-Jun-19 20:00N 32°05' W 081°04'0 0.1
2018-Jun-19 19:28N 32°05' W 081°04'0 0.0
2018-Jun-19 19:00N 32°05' W 081°04'0 0.0
2018-Jun-19 18:30N 32°05' W 081°04'0 0.0
2018-Jun-19 18:00N 32°05' W 081°04'0 0.0
2018-Jun-19 17:30N 32°05' W 081°04'0 0.0
2018-Jun-19 17:00N 32°05' W 081°04'0 0.0
2018-Jun-19 16:30N 32°05' W 081°04'0 0.0
2018-Jun-19 16:00N 32°05' W 081°04'0 0.0
2018-Jun-19 15:30N 32°05' W 081°04'0 0.0
2018-Jun-19 15:00N 32°05' W 081°04'0 0.0
2018-Jun-19 14:28N 32°05' W 081°04'0 0.0
2018-Jun-19 14:00N 32°05' W 081°04'0 0.0
2018-Jun-19 13:30N 32°05' W 081°04'0 0.0
2018-Jun-19 13:00N 32°05' W 081°04'0 0.0
2018-Jun-19 12:29N 32°05' W 081°04'0 0.0
2018-Jun-19 11:53N 32°05' W 081°04'0 0.0
2018-Jun-19 11:30N 32°05' W 081°04'0 0.0
2018-Jun-19 11:00N 32°05' W 081°04'0 0.0
2018-Jun-19 10:30N 32°05' W 081°04'0 0.0
2018-Jun-19 10:00N 32°05' W 081°04'0 0.0
2018-Jun-19 09:30N 32°05' W 081°04'0 0.0
2018-Jun-19 08:59N 32°05' W 081°04'0 0.0
2018-Jun-19 08:30N 32°05' W 081°04'1 2.8
2018-Jun-19 08:00N 32°05' W 081°05'4 8.1
2018-Jun-19 07:30N 32°08' W 081°09'1 1.8
2018-Jun-19 07:00N 32°07' W 081°08'3 5.0
2018-Jun-19 06:29N 32°05' W 081°06'2 4.2
2018-Jun-19 06:00N 32°05' W 081°04'2 4.5
2018-Jun-19 05:30N 32°06' W 081°01'2 4.6
2018-Jun-19 05:00N 32°05' W 081°04'0 0.0
2018-Jun-19 04:30N 32°05' W 081°04'0 0.0
2018-Jun-19 03:58N 32°05' W 081°04'0 0.0
2018-Jun-19 03:29N 32°05' W 081°04'0 0.0
2018-Jun-19 03:00N 32°05' W 081°04'0 0.0
2018-Jun-19 02:30N 32°05' W 081°04'0 0.0
2018-Jun-19 02:00N 32°05' W 081°04'0 0.0
2018-Jun-19 01:29N 32°05' W 081°04'0 0.0
2018-Jun-19 01:00N 32°05' W 081°04'0 0.0
2018-Jun-19 00:29N 32°05' W 081°04'0 0.0
2018-Jun-19 00:00N 32°05' W 081°04'0 0.0
2018-Jun-18 23:30N 32°05' W 081°04'0 0.0
2018-Jun-18 22:59N 32°05' W 081°04'0 0.0
2018-Jun-18 22:30N 32°05' W 081°04'0 0.0
2018-Jun-18 22:00N 32°05' W 081°04'0 0.0
2018-Jun-18 21:30N 32°05' W 081°04'0 0.0
2018-Jun-18 21:00N 32°05' W 081°04'0 0.0
2018-Jun-18 20:30N 32°05' W 081°04'0 0.3
2018-Jun-18 20:00N 32°05' W 081°04'2 4.9
2018-Jun-18 19:30N 32°06' W 081°07'2 4.8
2018-Jun-18 19:00N 32°08' W 081°08'0 0.9
2018-Jun-18 18:30N 32°08' W 081°09'1 2.5
2018-Jun-18 17:59N 32°07' W 081°08'0 0.0
2018-Jun-18 17:30N 32°07' W 081°08'0 0.0
2018-Jun-18 17:00N 32°07' W 081°08'0 0.0
2018-Jun-18 16:30N 32°07' W 081°08'0 0.0
2018-Jun-18 15:59N 32°07' W 081°08'0 0.0
2018-Jun-18 15:30N 32°07' W 081°08'0 0.0
2018-Jun-18 15:00N 32°07' W 081°08'0 0.0
2018-Jun-18 14:30N 32°07' W 081°08'0 0.0
2018-Jun-18 14:00N 32°07' W 081°08'0 0.0
2018-Jun-18 13:30N 32°07' W 081°08'0 0.0
2018-Jun-18 13:00N 32°07' W 081°08'0 0.9
2018-Jun-18 12:30N 32°07' W 081°08'3 6.4
2018-Jun-18 12:00N 32°05' W 081°06'2 3.0
2018-Jun-18 11:30N 32°05' W 081°04'0 0.0
2018-Jun-18 11:00N 32°05' W 081°04'0 0.0
2018-Jun-18 10:29N 32°05' W 081°04'0 0.0
2018-Jun-18 10:00N 32°05' W 081°04'0 0.0
2018-Jun-18 09:29N 32°05' W 081°04'0 0.0
2018-Jun-18 09:00N 32°05' W 081°04'0 0.0
2018-Jun-18 08:21N 32°05' W 081°04'0 0.0
2018-Jun-18 08:00N 32°05' W 081°04'0 0.0
2018-Jun-18 07:30N 32°05' W 081°04'0 0.0
2018-Jun-18 07:00N 32°05' W 081°04'0 0.0
2018-Jun-18 06:30N 32°05' W 081°04'0 0.0
2018-Jun-18 05:52N 32°05' W 081°04'0 0.0
2018-Jun-18 05:30N 32°05' W 081°04'0 0.0
2018-Jun-18 05:00N 32°05' W 081°04'0 0.0
2018-Jun-18 04:30N 32°05' W 081°04'0 0.0
2018-Jun-18 03:59N 32°05' W 081°04'0 0.0
2018-Jun-18 03:30N 32°05' W 081°04'0 0.0
2018-Jun-18 02:59N 32°05' W 081°04'0 0.0
2018-Jun-18 02:29N 32°05' W 081°04'0 0.0
2018-Jun-18 02:00N 32°05' W 081°04'0 0.0
2018-Jun-18 01:30N 32°05' W 081°04'0 0.0
2018-Jun-18 00:58N 32°05' W 081°04'0 0.0
2018-Jun-18 00:30N 32°05' W 081°04'0 0.0
2018-Jun-18 00:00N 32°05' W 081°04'0 0.0
2018-Jun-17 23:28N 32°05' W 081°04'0 0.0
2018-Jun-17 23:00N 32°05' W 081°04'0 0.0
2018-Jun-17 22:30N 32°05' W 081°04'0 0.0
2018-Jun-17 21:59N 32°05' W 081°04'0 0.0
2018-Jun-17 21:30N 32°05' W 081°04'0 0.0
2018-Jun-17 20:57N 32°05' W 081°04'0 0.0
2018-Jun-17 20:30N 32°05' W 081°04'0 0.0
2018-Jun-17 20:00N 32°05' W 081°04'0 0.0
2018-Jun-17 19:28N 32°05' W 081°04'0 0.0
2018-Jun-17 18:58N 32°05' W 081°04'0 0.0
2018-Jun-17 18:30N 32°05' W 081°04'0 0.0
2018-Jun-17 18:00N 32°05' W 081°04'0 0.0
2018-Jun-17 17:29N 32°05' W 081°04'1 2.4
2018-Jun-17 17:00N 32°05' W 081°05'4 7.0
2018-Jun-17 16:29N 32°08' W 081°08'0 0.0
2018-Jun-17 16:00N 32°08' W 081°08'0 0.4
2018-Jun-17 15:30N 32°07' W 081°08'2 4.6
2018-Jun-17 15:00N 32°06' W 081°06'0 0.0
2018-Jun-17 14:30N 32°06' W 081°06'0 0.0
2018-Jun-17 14:00N 32°06' W 081°06'0 0.0
2018-Jun-17 13:30N 32°06' W 081°06'0 0.0
2018-Jun-17 13:00N 32°06' W 081°06'0 0.0
2018-Jun-17 12:29N 32°06' W 081°06'2 4.9
2018-Jun-17 12:00N 32°07' W 081°08'0 0.0
2018-Jun-17 11:30N 32°07' W 081°08'1 1.1
2018-Jun-17 11:00N 32°08' W 081°08'1 2.9
2018-Jun-17 10:30N 32°07' W 081°07'2 4.6
2018-Jun-17 10:00N 32°05' W 081°06'1 2.9
2018-Jun-17 09:30N 32°05' W 081°04'0 0.0
2018-Jun-17 09:00N 32°05' W 081°04'0 0.0
2018-Jun-17 08:30N 32°05' W 081°04'0 0.0
2018-Jun-17 08:00N 32°05' W 081°04'0 0.0
2018-Jun-17 07:30N 32°05' W 081°04'0 0.0
2018-Jun-17 07:00N 32°05' W 081°04'1 1.1
2018-Jun-17 06:29N 32°05' W 081°04'3 5.7
2018-Jun-17 06:00N 32°06' W 081°07'2 4.3
2018-Jun-17 05:29N 32°08' W 081°08'0 0.2
2018-Jun-17 04:59N 32°08' W 081°09'0 0.0
2018-Jun-17 04:30N 32°08' W 081°09'0 0.5
2018-Jun-17 04:00N 32°08' W 081°09'0 0.0
2018-Jun-17 03:30N 32°08' W 081°09'0 0.9
2018-Jun-17 02:59N 32°08' W 081°09'0 0.4
2018-Jun-17 02:30N 32°08' W 081°08'1 2.7
2018-Jun-17 01:59N 32°07' W 081°07'3 5.5
2018-Jun-17 01:30N 32°05' W 081°05'3 5.5
2018-Jun-17 01:00N 32°05' W 081°02'2 2.8
2018-Jun-17 00:26N 32°05' W 081°04'0 0.0
2018-Jun-16 23:58N 32°05' W 081°04'0 0.0
2018-Jun-16 23:29N 32°05' W 081°04'0 0.0
2018-Jun-16 22:58N 32°05' W 081°04'0 0.0
2018-Jun-16 22:30N 32°05' W 081°04'0 0.4
2018-Jun-16 22:00N 32°05' W 081°04'2 3.2
2018-Jun-16 21:30N 32°05' W 081°02'2 3.3
2018-Jun-16 21:00N 32°05' W 081°04'0 0.4
2018-Jun-16 20:30N 32°05' W 081°04'0 0.0
2018-Jun-16 20:00N 32°05' W 081°04'0 0.0
2018-Jun-16 19:30N 32°05' W 081°04'0 0.0
2018-Jun-16 19:00N 32°05' W 081°04'0 0.0
2018-Jun-16 18:29N 32°05' W 081°04'0 0.0
2018-Jun-16 18:00N 32°05' W 081°04'0 0.0
2018-Jun-16 17:28N 32°05' W 081°04'0 0.0
2018-Jun-16 16:59N 32°05' W 081°04'0 0.0
2018-Jun-16 16:30N 32°05' W 081°04'0 0.0
2018-Jun-16 15:58N 32°05' W 081°04'4 8.5
2018-Jun-16 15:29N 32°07' W 081°08'1 1.3
2018-Jun-16 14:58N 32°08' W 081°08'0 0.6
2018-Jun-16 14:30N 32°07' W 081°08'3 5.6
2018-Jun-16 14:00N 32°05' W 081°06'0 0.0
2018-Jun-16 13:29N 32°05' W 081°06'0 0.2
2018-Jun-16 13:00N 32°05' W 081°06'2 3.6
2018-Jun-16 12:30N 32°07' W 081°07'2 3.5
2018-Jun-16 12:00N 32°05' W 081°06'0 0.0
2018-Jun-16 11:21N 32°05' W 081°06'0 0.0
2018-Jun-16 11:00N 32°05' W 081°06'0 0.0
2018-Jun-16 10:30N 32°05' W 081°06'2 3.3
2018-Jun-16 09:59N 32°07' W 081°07'2 3.5
2018-Jun-16 09:29N 32°08' W 081°08'1 1.9
2018-Jun-16 08:59N 32°07' W 081°08'0 0.0
2018-Jun-16 08:26N 32°07' W 081°08'0 0.7
2018-Jun-16 07:59N 32°07' W 081°08'0 1.0
2018-Jun-16 07:30N 32°08' W 081°08'1 1.8
2018-Jun-16 07:00N 32°07' W 081°08'0 0.0
2018-Jun-16 06:30N 32°07' W 081°08'0 0.0
2018-Jun-16 06:00N 32°07' W 081°08'0 0.0
2018-Jun-16 05:30N 32°07' W 081°08'0 0.0
2018-Jun-16 05:00N 32°07' W 081°08'1 1.3
2018-Jun-16 04:28N 32°08' W 081°08'0 0.6
2018-Jun-16 04:00N 32°08' W 081°09'0 0.0
2018-Jun-16 03:30N 32°08' W 081°09'0 0.8
2018-Jun-16 03:00N 32°08' W 081°09'0 0.9
2018-Jun-16 02:30N 32°08' W 081°08'2 3.7
2018-Jun-16 02:00N 32°06' W 081°07'3 6.3
2018-Jun-16 01:30N 32°05' W 081°04'0 0.3
2018-Jun-16 01:01N 32°05' W 081°04'0 0.0
2018-Jun-16 00:29N 32°05' W 081°04'0 0.0
2018-Jun-16 00:00N 32°05' W 081°04'0 0.0
2018-Jun-15 23:30N 32°05' W 081°04'0 0.0
2018-Jun-15 23:00N 32°05' W 081°04'0 0.0
2018-Jun-15 22:29N 32°05' W 081°04'0 0.0
2018-Jun-15 22:00N 32°05' W 081°04'0 0.0
2018-Jun-15 21:30N 32°05' W 081°04'0 0.0
2018-Jun-15 21:00N 32°05' W 081°04'0 0.0
2018-Jun-15 20:30N 32°05' W 081°04'0 0.0
2018-Jun-15 19:59N 32°05' W 081°04'0 0.0
2018-Jun-15 19:30N 32°05' W 081°04'0 0.0
2018-Jun-15 19:00N 32°05' W 081°04'0 0.0
2018-Jun-15 18:31N 32°05' W 081°04'0 0.0
2018-Jun-15 18:00N 32°05' W 081°04'0 0.0
2018-Jun-15 17:29N 32°05' W 081°04'0 0.0
2018-Jun-15 17:00N 32°05' W 081°04'0 0.0
2018-Jun-15 16:30N 32°05' W 081°04'0 0.0
2018-Jun-15 16:00N 32°05' W 081°04'3 6.3
2018-Jun-15 15:30N 32°06' W 081°07'2 3.4
2018-Jun-15 15:00N 32°08' W 081°08'2 4.0
2018-Jun-15 14:30N 32°06' W 081°07'1 2.6
2018-Jun-15 14:00N 32°05' W 081°06'2 3.2
2018-Jun-15 13:29N 32°05' W 081°04'0 0.0
2018-Jun-15 13:00N 32°05' W 081°04'0 0.0
2018-Jun-15 12:30N 32°05' W 081°04'0 0.0
2018-Jun-15 12:00N 32°05' W 081°04'0 0.0
2018-Jun-15 11:30N 32°05' W 081°04'0 0.0
2018-Jun-15 10:59N 32°05' W 081°04'0 0.0
2018-Jun-15 10:29N 32°05' W 081°04'0 0.0
2018-Jun-15 10:00N 32°05' W 081°04'0 0.0
2018-Jun-15 09:31N 32°05' W 081°04'0 0.0
2018-Jun-15 08:59N 32°05' W 081°04'0 0.0
2018-Jun-15 08:30N 32°05' W 081°04'0 0.0
2018-Jun-15 08:00N 32°05' W 081°04'0 0.0
2018-Jun-15 07:30N 32°05' W 081°04'0 0.0
2018-Jun-15 07:00N 32°05' W 081°04'0 0.0
2018-Jun-15 06:30N 32°05' W 081°04'0 0.0
2018-Jun-15 05:59N 32°05' W 081°04'0 0.0
2018-Jun-15 05:30N 32°05' W 081°04'0 0.0
2018-Jun-15 05:00N 32°05' W 081°04'0 0.0
2018-Jun-15 04:30N 32°05' W 081°04'0 0.0
2018-Jun-15 04:00N 32°05' W 081°04'0 0.0
2018-Jun-15 03:28N 32°05' W 081°04'0 0.0
2018-Jun-15 03:00N 32°05' W 081°04'0 0.0
2018-Jun-15 02:29N 32°05' W 081°04'0 0.0
2018-Jun-15 02:00N 32°05' W 081°04'0 0.0
2018-Jun-15 01:30N 32°05' W 081°04'0 0.0
2018-Jun-15 01:00N 32°05' W 081°04'0 0.0
2018-Jun-15 00:28N 32°05' W 081°04'0 0.0
2018-Jun-15 00:00N 32°05' W 081°04'0 0.0
2018-Jun-14 23:30N 32°05' W 081°04'0 0.0
2018-Jun-14 22:59N 32°05' W 081°04'0 0.0
2018-Jun-14 22:30N 32°05' W 081°04'0 0.0
2018-Jun-14 22:00N 32°05' W 081°04'0 0.0
2018-Jun-14 21:30N 32°05' W 081°04'0 0.0
2018-Jun-14 21:00N 32°05' W 081°04'0 0.0
2018-Jun-14 20:29N 32°05' W 081°04'0 0.0
2018-Jun-14 20:00N 32°05' W 081°04'0 0.0
2018-Jun-14 19:29N 32°05' W 081°04'0 0.0
2018-Jun-14 19:00N 32°05' W 081°04'0 0.0
2018-Jun-14 18:30N 32°05' W 081°04'0 0.0
2018-Jun-14 18:00N 32°05' W 081°04'0 0.0
2018-Jun-14 17:30N 32°05' W 081°04'0 0.0
2018-Jun-14 17:00N 32°05' W 081°04'0 0.0
2018-Jun-14 16:30N 32°05' W 081°04'0 0.0
2018-Jun-14 15:59N 32°05' W 081°04'0 0.0
2018-Jun-14 15:30N 32°05' W 081°04'2 4.5
2018-Jun-14 15:00N 32°06' W 081°06'3 6.9
2018-Jun-14 14:30N 32°09' W 081°09'0 0.2
2018-Jun-14 14:00N 32°09' W 081°09'0 0.4
2018-Jun-14 13:31N 32°08' W 081°09'1 1.4
2018-Jun-14 13:00N 32°08' W 081°08'0 0.0
2018-Jun-14 12:31N 32°08' W 081°08'0 0.0
2018-Jun-14 12:00N 32°08' W 081°08'0 0.3
2018-Jun-14 11:31N 32°08' W 081°08'0 0.2
2018-Jun-14 11:00N 32°08' W 081°08'0 0.6
2018-Jun-14 10:30N 32°08' W 081°09'0 0.1
2018-Jun-14 10:00N 32°08' W 081°09'1 1.4
2018-Jun-14 09:30N 32°07' W 081°08'3 5.6
2018-Jun-14 09:00N 32°05' W 081°06'2 3.5
2018-Jun-14 08:30N 32°05' W 081°04'0 0.0
2018-Jun-14 08:00N 32°05' W 081°04'0 0.0
2018-Jun-14 07:30N 32°05' W 081°04'0 0.0
2018-Jun-14 07:00N 32°05' W 081°04'0 0.0
2018-Jun-14 06:30N 32°05' W 081°04'0 0.0
2018-Jun-14 06:00N 32°05' W 081°04'0 0.0
2018-Jun-14 05:29N 32°05' W 081°04'0 0.0
2018-Jun-14 05:00N 32°05' W 081°04'0 0.0
2018-Jun-14 04:30N 32°05' W 081°04'0 0.0
2018-Jun-14 04:00N 32°05' W 081°04'0 0.0
2018-Jun-14 03:30N 32°05' W 081°04'0 0.0
2018-Jun-14 02:59N 32°05' W 081°04'0 0.0
2018-Jun-14 02:30N 32°05' W 081°04'0 0.0
2018-Jun-14 02:01N 32°05' W 081°04'0 0.0
2018-Jun-14 01:30N 32°05' W 081°04'0 0.0
2018-Jun-14 01:00N 32°05' W 081°04'0 0.0
2018-Jun-14 00:30N 32°05' W 081°04'0 0.0
2018-Jun-14 00:00N 32°05' W 081°04'0 0.0
2018-Jun-13 23:30N 32°05' W 081°04'0 0.0
2018-Jun-13 23:00N 32°05' W 081°04'0 0.0
2018-Jun-13 22:30N 32°05' W 081°04'0 0.0
2018-Jun-13 22:01N 32°05' W 081°04'0 0.0
2018-Jun-13 21:30N 32°05' W 081°04'1 2.8
2018-Jun-13 20:59N 32°05' W 081°06'3 2.2
2018-Jun-13 19:26N 32°08' W 081°08'2 4.8
2018-Jun-13 19:00N 32°06' W 081°07'3 5.3
2018-Jun-13 18:30N 32°05' W 081°04'0 0.2
2018-Jun-13 18:00N 32°05' W 081°04'0 0.0
2018-Jun-13 17:30N 32°05' W 081°04'0 0.0
2018-Jun-13 17:00N 32°05' W 081°04'0 0.0
2018-Jun-13 16:30N 32°05' W 081°04'0 0.0
2018-Jun-13 16:00N 32°05' W 081°04'0 0.0
2018-Jun-13 15:30N 32°05' W 081°04'0 0.0
2018-Jun-13 15:00N 32°05' W 081°04'0 0.0
2018-Jun-13 14:30N 32°05' W 081°04'0 0.0
2018-Jun-13 14:00N 32°05' W 081°04'0 0.0
2018-Jun-13 13:30N 32°05' W 081°04'0 0.0
2018-Jun-13 13:00N 32°05' W 081°04'0 0.0
2018-Jun-13 12:30N 32°05' W 081°04'0 0.0
2018-Jun-13 12:00N 32°05' W 081°04'3 5.2
2018-Jun-13 11:30N 32°06' W 081°07'2 3.4
2018-Jun-13 11:00N 32°07' W 081°08'2 3.1
2018-Jun-13 10:30N 32°06' W 081°07'1 1.2
2018-Jun-13 10:00N 32°06' W 081°06'0 0.0
2018-Jun-13 09:30N 32°06' W 081°06'0 0.0
2018-Jun-13 09:00N 32°06' W 081°06'0 0.0
2018-Jun-13 08:30N 32°06' W 081°06'0 0.0
2018-Jun-13 08:00N 32°06' W 081°06'0 0.4
2018-Jun-13 07:30N 32°05' W 081°06'0 0.0
2018-Jun-13 07:00N 32°05' W 081°06'0 0.0
2018-Jun-13 06:30N 32°05' W 081°06'0 0.3
2018-Jun-13 06:00N 32°06' W 081°06'1 2.9
2018-Jun-13 05:30N 32°05' W 081°05'1 1.6
2018-Jun-13 05:00N 32°05' W 081°04'0 0.0
2018-Jun-13 04:30N 32°05' W 081°04'0 0.0
2018-Jun-13 04:00N 32°05' W 081°04'0 0.0
2018-Jun-13 03:30N 32°05' W 081°04'0 0.0
2018-Jun-13 02:59N 32°05' W 081°04'0 0.0
2018-Jun-13 02:29N 32°05' W 081°04'2 5.2
2018-Jun-13 02:00N 32°06' W 081°07'2 3.7
2018-Jun-13 01:30N 32°07' W 081°08'0 0.4
2018-Jun-13 01:00N 32°07' W 081°08'0 0.4
2018-Jun-13 00:30N 32°07' W 081°08'0 0.0
2018-Jun-13 00:00N 32°07' W 081°08'0 0.6
2018-Jun-12 23:30N 32°08' W 081°08'0 0.1
2018-Jun-12 23:00N 32°08' W 081°08'0 0.4
2018-Jun-12 22:29N 32°08' W 081°08'1 1.9
2018-Jun-12 22:00N 32°07' W 081°08'4 7.7
2018-Jun-12 21:30N 32°05' W 081°04'0 0.0
2018-Jun-12 20:58N 32°05' W 081°04'0 0.0
2018-Jun-12 20:29N 32°05' W 081°04'0 0.0
2018-Jun-12 20:00N 32°05' W 081°04'0 0.0
2018-Jun-12 19:30N 32°05' W 081°04'0 0.0
2018-Jun-12 19:00N 32°05' W 081°04'0 0.0
2018-Jun-12 18:30N 32°05' W 081°04'1 1.7
2018-Jun-12 18:00N 32°05' W 081°03'2 3.7
2018-Jun-12 17:30N 32°05' W 081°05'2 3.9
2018-Jun-12 16:58N 32°06' W 081°07'2 4.2
2018-Jun-12 16:30N 32°08' W 081°08'0 0.9
2018-Jun-12 16:00N 32°08' W 081°09'1 1.8
2018-Jun-12 15:30N 32°07' W 081°08'1 1.3
2018-Jun-12 15:00N 32°08' W 081°08'2 4.9
2018-Jun-12 14:30N 32°06' W 081°07'1 1.1
2018-Jun-12 14:00N 32°06' W 081°06'0 0.0
2018-Jun-12 13:30N 32°06' W 081°06'3 5.1
2018-Jun-12 13:00N 32°08' W 081°08'0 0.6
2018-Jun-12 12:30N 32°08' W 081°08'2 3.0
2018-Jun-12 12:00N 32°07' W 081°07'2 4.3
2018-Jun-12 11:30N 32°08' W 081°09'1 2.5
2018-Jun-12 11:01N 32°07' W 081°08'2 4.9
2018-Jun-12 10:30N 32°05' W 081°06'2 4.1
2018-Jun-12 09:59N 32°05' W 081°04'2 4.5
2018-Jun-12 09:31N 32°06' W 081°01'2 4.5
2018-Jun-12 09:00N 32°05' W 081°04'0 0.0
2018-Jun-12 08:30N 32°05' W 081°04'0 0.0
2018-Jun-12 08:00N 32°05' W 081°04'0 0.0
2018-Jun-12 07:29N 32°05' W 081°04'0 0.0
2018-Jun-12 07:00N 32°05' W 081°04'0 0.0
2018-Jun-12 06:27N 32°05' W 081°04'0 0.0
2018-Jun-12 06:00N 32°05' W 081°04'0 0.0
2018-Jun-12 05:30N 32°05' W 081°04'0 0.0
2018-Jun-12 05:00N 32°05' W 081°04'0 0.0
2018-Jun-12 04:30N 32°05' W 081°04'0 0.0
2018-Jun-12 04:00N 32°05' W 081°04'0 0.0
2018-Jun-12 03:30N 32°05' W 081°04'0 0.0
2018-Jun-12 03:00N 32°05' W 081°04'0 0.0
2018-Jun-12 02:30N 32°05' W 081°04'0 0.0
2018-Jun-12 02:00N 32°05' W 081°04'0 0.0
2018-Jun-12 01:30N 32°05' W 081°04'  
Track history (hours):
 
Tides and Currents Weather Stations Pressure Air Temp Water Temp Dewpoint Dewpoint Depression Visibility Wind Speed Wind Dir Waves Ship Positions

Cooper Moran

Owner: MORAN TOWING CORPORATION, New Canaan, CT. More information available from US FCC via Universal Licensing System and Coast Guard Vessel Documentation Center.

Last reported at 2018-Jun-22 01:00 UTC. Time now 2018-Jun-22 01:25 UTC.
Position N 32°08' W 081°08'.

Length 28 m; draft 5.2 m.

Type: Tug. MMSI: 367745820.

Date/timePositionNaut miles runAvg speedWind from/ knotsBaromVisibWave heightAir tempDewpointWater temp
2018-Jun-22 01:00N 32°08' W 081°08'0 0.4
2018-Jun-22 00:30N 32°08' W 081°08'1 2.9
2018-Jun-22 00:00N 32°07' W 081°07'2 3.0
2018-Jun-21 23:30N 32°06' W 081°06'0 0.0
2018-Jun-21 23:00N 32°06' W 081°06'0 0.0
2018-Jun-21 22:30N 32°06' W 081°06'2 4.2
2018-Jun-21 22:00N 32°07' W 081°08'1 1.6
2018-Jun-21 21:30N 32°07' W 081°07'1 1.0
2018-Jun-21 21:00N 32°06' W 081°07'2 4.1
2018-Jun-21 20:30N 32°08' W 081°08'0 0.9
2018-Jun-21 20:00N 32°08' W 081°08'1 1.3
2018-Jun-21 19:30N 32°07' W 081°08'4 7.7
2018-Jun-21 19:00N 32°05' W 081°04'0 0.6
2018-Jun-21 18:30N 32°05' W 081°04'1 1.1
2018-Jun-21 17:59N 32°05' W 081°03'0 0.1
2018-Jun-21 17:30N 32°05' W 081°03'1 1.6
2018-Jun-21 16:59N 32°05' W 081°02'0 0.6
2018-Jun-21 16:30N 32°05' W 081°02'1 2.4
2018-Jun-21 16:00N 32°05' W 081°04'0 0.0
2018-Jun-21 15:30N 32°05' W 081°04'0 0.0
2018-Jun-21 15:00N 32°05' W 081°04'0 0.0
2018-Jun-21 14:30N 32°05' W 081°04'0 0.0
2018-Jun-21 13:53N 32°05' W 081°04'0 0.0
2018-Jun-21 13:28N 32°05' W 081°04'0 0.0
2018-Jun-21 13:00N 32°05' W 081°04'0 0.0
2018-Jun-21 12:30N 32°05' W 081°04'0 0.0
2018-Jun-21 12:00N 32°05' W 081°04'2 3.4
2018-Jun-21 11:30N 32°05' W 081°06'3 6.9
2018-Jun-21 11:00N 32°08' W 081°08'0 0.3
2018-Jun-21 10:30N 32°08' W 081°08'0 0.8
2018-Jun-21 10:00N 32°08' W 081°09'0 0.0
2018-Jun-21 09:30N 32°08' W 081°09'3 6.2
2018-Jun-21 09:00N 32°06' W 081°06'2 4.6
2018-Jun-21 08:30N 32°05' W 081°04'0 0.0
2018-Jun-21 08:00N 32°05' W 081°04'0 0.0
2018-Jun-21 07:28N 32°05' W 081°04'0 0.0
2018-Jun-21 07:00N 32°05' W 081°04'0 0.0
2018-Jun-21 06:30N 32°05' W 081°04'0 0.0
2018-Jun-21 06:00N 32°05' W 081°04'0 0.0
2018-Jun-21 05:30N 32°05' W 081°04'0 0.0
2018-Jun-21 05:00N 32°05' W 081°04'0 0.0
2018-Jun-21 04:25N 32°05' W 081°04'0 0.0
2018-Jun-21 04:00N 32°05' W 081°04'0 0.0
2018-Jun-21 03:27N 32°05' W 081°04'0 0.6
2018-Jun-21 03:00N 32°05' W 081°04'4 7.8
2018-Jun-21 02:29N 32°07' W 081°08'0 0.1
2018-Jun-21 02:00N 32°07' W 081°08'0 0.2
2018-Jun-21 01:30N 32°07' W 081°08'0 0.0
2018-Jun-21 00:59N 32°07' W 081°08'0 0.0
2018-Jun-21 00:30N 32°07' W 081°08'0 0.0
2018-Jun-21 00:00N 32°07' W 081°08'0 0.0
2018-Jun-20 23:30N 32°07' W 081°08'0 0.0
2018-Jun-20 23:00N 32°07' W 081°08'0 0.0
2018-Jun-20 22:30N 32°07' W 081°08'0 0.0
2018-Jun-20 22:00N 32°07' W 081°08'0 0.9
2018-Jun-20 21:30N 32°08' W 081°08'0 0.5
2018-Jun-20 20:59N 32°08' W 081°08'1 2.6
2018-Jun-20 20:29N 32°07' W 081°07'2 4.4
2018-Jun-20 20:00N 32°05' W 081°06'2 3.3
2018-Jun-20 19:30N 32°05' W 081°04'0 0.0
2018-Jun-20 18:59N 32°05' W 081°04'0 0.0
2018-Jun-20 18:29N 32°05' W 081°04'0 0.0
2018-Jun-20 17:59N 32°05' W 081°04'0 0.0
2018-Jun-20 17:30N 32°05' W 081°04'0 0.0
2018-Jun-20 17:00N 32°05' W 081°04'0 0.0
2018-Jun-20 16:30N 32°05' W 081°04'0 0.0
2018-Jun-20 15:59N 32°05' W 081°04'0 0.0
2018-Jun-20 15:30N 32°05' W 081°04'0 0.0
2018-Jun-20 15:00N 32°05' W 081°04'0 0.0
2018-Jun-20 14:30N 32°05' W 081°04'0 0.0
2018-Jun-20 14:00N 32°05' W 081°04'0 0.0
2018-Jun-20 13:30N 32°05' W 081°04'0 0.0
2018-Jun-20 13:00N 32°05' W 081°04'0 0.0
2018-Jun-20 12:30N 32°05' W 081°04'0 0.0
2018-Jun-20 12:00N 32°05' W 081°04'0 0.0
2018-Jun-20 11:30N 32°05' W 081°04'0 0.0
2018-Jun-20 11:00N 32°05' W 081°04'0 0.0
2018-Jun-20 10:30N 32°05' W 081°04'0 0.0
2018-Jun-20 10:00N 32°05' W 081°04'0 0.0
2018-Jun-20 09:30N 32°05' W 081°04'0 0.0
2018-Jun-20 09:00N 32°05' W 081°04'0 0.0
2018-Jun-20 08:30N 32°05' W 081°04'0 0.0
2018-Jun-20 07:56N 32°05' W 081°04'0 0.0
2018-Jun-20 07:30N 32°05' W 081°04'0 0.0
2018-Jun-20 07:00N 32°05' W 081°04'0 0.0
2018-Jun-20 06:30N 32°05' W 081°04'0 0.0
2018-Jun-20 06:00N 32°05' W 081°04'0 0.0
2018-Jun-20 05:30N 32°05' W 081°04'0 0.0
2018-Jun-20 05:00N 32°05' W 081°04'1 2.3
2018-Jun-20 04:25N 32°05' W 081°05'3 7.2
2018-Jun-20 04:00N 32°07' W 081°08'1 2.9
2018-Jun-20 03:30N 32°08' W 081°08'0 0.2
2018-Jun-20 03:00N 32°08' W 081°09'3 5.7
2018-Jun-20 02:30N 32°06' W 081°07'3 5.5
2018-Jun-20 02:00N 32°05' W 081°04'0 0.0
2018-Jun-20 01:30N 32°05' W 081°04'0 0.0
2018-Jun-20 01:00N 32°05' W 081°04'0 0.0
2018-Jun-20 00:30N 32°05' W 081°04'0 0.0
2018-Jun-19 23:59N 32°05' W 081°04'0 0.0
2018-Jun-19 23:30N 32°05' W 081°04'0 0.0
2018-Jun-19 22:59N 32°05' W 081°04'0 0.0
2018-Jun-19 22:30N 32°05' W 081°04'0 0.0
2018-Jun-19 21:59N 32°05' W 081°04'0 0.0
2018-Jun-19 21:30N 32°05' W 081°04'0 0.0
2018-Jun-19 21:00N 32°05' W 081°04'0 0.0
2018-Jun-19 20:30N 32°05' W 081°04'0 0.1
2018-Jun-19 20:00N 32°05' W 081°04'0 0.1
2018-Jun-19 19:28N 32°05' W 081°04'0 0.0
2018-Jun-19 19:00N 32°05' W 081°04'0 0.0
2018-Jun-19 18:30N 32°05' W 081°04'0 0.0
2018-Jun-19 18:00N 32°05' W 081°04'0 0.0
2018-Jun-19 17:30N 32°05' W 081°04'0 0.0
2018-Jun-19 17:00N 32°05' W 081°04'0 0.0
2018-Jun-19 16:30N 32°05' W 081°04'0 0.0
2018-Jun-19 16:00N 32°05' W 081°04'0 0.0
2018-Jun-19 15:30N 32°05' W 081°04'0 0.0
2018-Jun-19 15:00N 32°05' W 081°04'0 0.0
2018-Jun-19 14:28N 32°05' W 081°04'0 0.0
2018-Jun-19 14:00N 32°05' W 081°04'0 0.0
2018-Jun-19 13:30N 32°05' W 081°04'0 0.0
2018-Jun-19 13:00N 32°05' W 081°04'0 0.0
2018-Jun-19 12:29N 32°05' W 081°04'0 0.0
2018-Jun-19 11:53N 32°05' W 081°04'0 0.0
2018-Jun-19 11:30N 32°05' W 081°04'0 0.0
2018-Jun-19 11:00N 32°05' W 081°04'0 0.0
2018-Jun-19 10:30N 32°05' W 081°04'0 0.0
2018-Jun-19 10:00N 32°05' W 081°04'0 0.0
2018-Jun-19 09:30N 32°05' W 081°04'0 0.0
2018-Jun-19 08:59N 32°05' W 081°04'0 0.0
2018-Jun-19 08:30N 32°05' W 081°04'1 2.8
2018-Jun-19 08:00N 32°05' W 081°05'4 8.1
2018-Jun-19 07:30N 32°08' W 081°09'1 1.8
2018-Jun-19 07:00N 32°07' W 081°08'3 5.0
2018-Jun-19 06:29N 32°05' W 081°06'2 4.2
2018-Jun-19 06:00N 32°05' W 081°04'2 4.5
2018-Jun-19 05:30N 32°06' W 081°01'2 4.6
2018-Jun-19 05:00N 32°05' W 081°04'0 0.0
2018-Jun-19 04:30N 32°05' W 081°04'0 0.0
2018-Jun-19 03:58N 32°05' W 081°04'0 0.0
2018-Jun-19 03:29N 32°05' W 081°04'0 0.0
2018-Jun-19 03:00N 32°05' W 081°04'0 0.0
2018-Jun-19 02:30N 32°05' W 081°04'0 0.0
2018-Jun-19 02:00N 32°05' W 081°04'0 0.0
2018-Jun-19 01:29N 32°05' W 081°04'0 0.0
2018-Jun-19 01:00N 32°05' W 081°04'0 0.0
2018-Jun-19 00:29N 32°05' W 081°04'0 0.0
2018-Jun-19 00:00N 32°05' W 081°04'0 0.0
2018-Jun-18 23:30N 32°05' W 081°04'0 0.0
2018-Jun-18 22:59N 32°05' W 081°04'0 0.0
2018-Jun-18 22:30N 32°05' W 081°04'0 0.0
2018-Jun-18 22:00N 32°05' W 081°04'0 0.0
2018-Jun-18 21:30N 32°05' W 081°04'0 0.0
2018-Jun-18 21:00N 32°05' W 081°04'0 0.0
2018-Jun-18 20:30N 32°05' W 081°04'0 0.3
2018-Jun-18 20:00N 32°05' W 081°04'2 4.9
2018-Jun-18 19:30N 32°06' W 081°07'2 4.8
2018-Jun-18 19:00N 32°08' W 081°08'0 0.9
2018-Jun-18 18:30N 32°08' W 081°09'1 2.5
2018-Jun-18 17:59N 32°07' W 081°08'0 0.0
2018-Jun-18 17:30N 32°07' W 081°08'0 0.0
2018-Jun-18 17:00N 32°07' W 081°08'0 0.0
2018-Jun-18 16:30N 32°07' W 081°08'0 0.0
2018-Jun-18 15:59N 32°07' W 081°08'0 0.0
2018-Jun-18 15:30N 32°07' W 081°08'0 0.0
2018-Jun-18 15:00N 32°07' W 081°08'0 0.0
2018-Jun-18 14:30N 32°07' W 081°08'0 0.0
2018-Jun-18 14:00N 32°07' W 081°08'0 0.0
2018-Jun-18 13:30N 32°07' W 081°08'0 0.0
2018-Jun-18 13:00N 32°07' W 081°08'0 0.9
2018-Jun-18 12:30N 32°07' W 081°08'3 6.4
2018-Jun-18 12:00N 32°05' W 081°06'2 3.0
2018-Jun-18 11:30N 32°05' W 081°04'0 0.0
2018-Jun-18 11:00N 32°05' W 081°04'0 0.0
2018-Jun-18 10:29N 32°05' W 081°04'0 0.0
2018-Jun-18 10:00N 32°05' W 081°04'0 0.0
2018-Jun-18 09:29N 32°05' W 081°04'0 0.0
2018-Jun-18 09:00N 32°05' W 081°04'0 0.0
2018-Jun-18 08:21N 32°05' W 081°04'0 0.0
2018-Jun-18 08:00N 32°05' W 081°04'0 0.0
2018-Jun-18 07:30N 32°05' W 081°04'0 0.0
2018-Jun-18 07:00N 32°05' W 081°04'0 0.0
2018-Jun-18 06:30N 32°05' W 081°04'0 0.0
2018-Jun-18 05:52N 32°05' W 081°04'0 0.0
2018-Jun-18 05:30N 32°05' W 081°04'0 0.0
2018-Jun-18 05:00N 32°05' W 081°04'0 0.0
2018-Jun-18 04:30N 32°05' W 081°04'0 0.0
2018-Jun-18 03:59N 32°05' W 081°04'0 0.0
2018-Jun-18 03:30N 32°05' W 081°04'0 0.0
2018-Jun-18 02:59N 32°05' W 081°04'0 0.0
2018-Jun-18 02:29N 32°05' W 081°04'0 0.0
2018-Jun-18 02:00N 32°05' W 081°04'0 0.0
2018-Jun-18 01:30N 32°05' W 081°04'0 0.0
2018-Jun-18 00:58N 32°05' W 081°04'0 0.0
2018-Jun-18 00:30N 32°05' W 081°04'0 0.0
2018-Jun-18 00:00N 32°05' W 081°04'0 0.0
2018-Jun-17 23:28N 32°05' W 081°04'0 0.0
2018-Jun-17 23:00N 32°05' W 081°04'0 0.0
2018-Jun-17 22:30N 32°05' W 081°04'0 0.0
2018-Jun-17 21:59N 32°05' W 081°04'0 0.0
2018-Jun-17 21:30N 32°05' W 081°04'0 0.0
2018-Jun-17 20:57N 32°05' W 081°04'0 0.0
2018-Jun-17 20:30N 32°05' W 081°04'0 0.0
2018-Jun-17 20:00N 32°05' W 081°04'0 0.0
2018-Jun-17 19:28N 32°05' W 081°04'0 0.0
2018-Jun-17 18:58N 32°05' W 081°04'0 0.0
2018-Jun-17 18:30N 32°05' W 081°04'0 0.0
2018-Jun-17 18:00N 32°05' W 081°04'0 0.0
2018-Jun-17 17:29N 32°05' W 081°04'1 2.4
2018-Jun-17 17:00N 32°05' W 081°05'4 7.0
2018-Jun-17 16:29N 32°08' W 081°08'0 0.0
2018-Jun-17 16:00N 32°08' W 081°08'0 0.4
2018-Jun-17 15:30N 32°07' W 081°08'2 4.6
2018-Jun-17 15:00N 32°06' W 081°06'0 0.0
2018-Jun-17 14:30N 32°06' W 081°06'0 0.0
2018-Jun-17 14:00N 32°06' W 081°06'0 0.0
2018-Jun-17 13:30N 32°06' W 081°06'0 0.0
2018-Jun-17 13:00N 32°06' W 081°06'0 0.0
2018-Jun-17 12:29N 32°06' W 081°06'2 4.9
2018-Jun-17 12:00N 32°07' W 081°08'0 0.0
2018-Jun-17 11:30N 32°07' W 081°08'1 1.1
2018-Jun-17 11:00N 32°08' W 081°08'1 2.9
2018-Jun-17 10:30N 32°07' W 081°07'2 4.6
2018-Jun-17 10:00N 32°05' W 081°06'1 2.9
2018-Jun-17 09:30N 32°05' W 081°04'0 0.0
2018-Jun-17 09:00N 32°05' W 081°04'0 0.0
2018-Jun-17 08:30N 32°05' W 081°04'0 0.0
2018-Jun-17 08:00N 32°05' W 081°04'0 0.0
2018-Jun-17 07:30N 32°05' W 081°04'0 0.0
2018-Jun-17 07:00N 32°05' W 081°04'1 1.1
2018-Jun-17 06:29N 32°05' W 081°04'3 5.7
2018-Jun-17 06:00N 32°06' W 081°07'2 4.3
2018-Jun-17 05:29N 32°08' W 081°08'0 0.2
2018-Jun-17 04:59N 32°08' W 081°09'0 0.0
2018-Jun-17 04:30N 32°08' W 081°09'0 0.5
2018-Jun-17 04:00N 32°08' W 081°09'0 0.0
2018-Jun-17 03:30N 32°08' W 081°09'0 0.9
2018-Jun-17 02:59N 32°08' W 081°09'0 0.4
2018-Jun-17 02:30N 32°08' W 081°08'1 2.7
2018-Jun-17 01:59N 32°07' W 081°07'3 5.5
2018-Jun-17 01:30N 32°05' W 081°05'3 5.5
2018-Jun-17 01:00N 32°05' W 081°02'2 2.8
2018-Jun-17 00:26N 32°05' W 081°04'0 0.0
2018-Jun-16 23:58N 32°05' W 081°04'0 0.0
2018-Jun-16 23:29N 32°05' W 081°04'0 0.0
2018-Jun-16 22:58N 32°05' W 081°04'0 0.0
2018-Jun-16 22:30N 32°05' W 081°04'0 0.4
2018-Jun-16 22:00N 32°05' W 081°04'2 3.2
2018-Jun-16 21:30N 32°05' W 081°02'2 3.3
2018-Jun-16 21:00N 32°05' W 081°04'0 0.4
2018-Jun-16 20:30N 32°05' W 081°04'0 0.0
2018-Jun-16 20:00N 32°05' W 081°04'0 0.0
2018-Jun-16 19:30N 32°05' W 081°04'0 0.0
2018-Jun-16 19:00N 32°05' W 081°04'0 0.0
2018-Jun-16 18:29N 32°05' W 081°04'0 0.0
2018-Jun-16 18:00N 32°05' W 081°04'0 0.0
2018-Jun-16 17:28N 32°05' W 081°04'0 0.0
2018-Jun-16 16:59N 32°05' W 081°04'0 0.0
2018-Jun-16 16:30N 32°05' W 081°04'0 0.0
2018-Jun-16 15:58N 32°05' W 081°04'4 8.5
2018-Jun-16 15:29N 32°07' W 081°08'1 1.3
2018-Jun-16 14:58N 32°08' W 081°08'0 0.6
2018-Jun-16 14:30N 32°07' W 081°08'3 5.6
2018-Jun-16 14:00N 32°05' W 081°06'0 0.0
2018-Jun-16 13:29N 32°05' W 081°06'0 0.2
2018-Jun-16 13:00N 32°05' W 081°06'2 3.6
2018-Jun-16 12:30N 32°07' W 081°07'2 3.5
2018-Jun-16 12:00N 32°05' W 081°06'0 0.0
2018-Jun-16 11:21N 32°05' W 081°06'0 0.0
2018-Jun-16 11:00N 32°05' W 081°06'0 0.0
2018-Jun-16 10:30N 32°05' W 081°06'2 3.3
2018-Jun-16 09:59N 32°07' W 081°07'2 3.5
2018-Jun-16 09:29N 32°08' W 081°08'1 1.9
2018-Jun-16 08:59N 32°07' W 081°08'0 0.0
2018-Jun-16 08:26N 32°07' W 081°08'0 0.7
2018-Jun-16 07:59N 32°07' W 081°08'0 1.0
2018-Jun-16 07:30N 32°08' W 081°08'1 1.8
2018-Jun-16 07:00N 32°07' W 081°08'0 0.0
2018-Jun-16 06:30N 32°07' W 081°08'0 0.0
2018-Jun-16 06:00N 32°07' W 081°08'0 0.0
2018-Jun-16 05:30N 32°07' W 081°08'0 0.0
2018-Jun-16 05:00N 32°07' W 081°08'1 1.3
2018-Jun-16 04:28N 32°08' W 081°08'0 0.6
2018-Jun-16 04:00N 32°08' W 081°09'0 0.0
2018-Jun-16 03:30N 32°08' W 081°09'0 0.8
2018-Jun-16 03:00N 32°08' W 081°09'0 0.9
2018-Jun-16 02:30N 32°08' W 081°08'2 3.7
2018-Jun-16 02:00N 32°06' W 081°07'3 6.3
2018-Jun-16 01:30N 32°05' W 081°04'0 0.3
2018-Jun-16 01:01N 32°05' W 081°04'0 0.0
2018-Jun-16 00:29N 32°05' W 081°04'0 0.0
2018-Jun-16 00:00N 32°05' W 081°04'0 0.0
2018-Jun-15 23:30N 32°05' W 081°04'0 0.0
2018-Jun-15 23:00N 32°05' W 081°04'0 0.0
2018-Jun-15 22:29N 32°05' W 081°04'0 0.0
2018-Jun-15 22:00N 32°05' W 081°04'0 0.0
2018-Jun-15 21:30N 32°05' W 081°04'0 0.0
2018-Jun-15 21:00N 32°05' W 081°04'0 0.0
2018-Jun-15 20:30N 32°05' W 081°04'0 0.0
2018-Jun-15 19:59N 32°05' W 081°04'0 0.0
2018-Jun-15 19:30N 32°05' W 081°04'0 0.0
2018-Jun-15 19:00N 32°05' W 081°04'0 0.0
2018-Jun-15 18:31N 32°05' W 081°04'0 0.0
2018-Jun-15 18:00N 32°05' W 081°04'0 0.0
2018-Jun-15 17:29N 32°05' W 081°04'0 0.0
2018-Jun-15 17:00N 32°05' W 081°04'0 0.0
2018-Jun-15 16:30N 32°05' W 081°04'0 0.0
2018-Jun-15 16:00N 32°05' W 081°04'3 6.3
2018-Jun-15 15:30N 32°06' W 081°07'2 3.4
2018-Jun-15 15:00N 32°08' W 081°08'2 4.0
2018-Jun-15 14:30N 32°06' W 081°07'1 2.6
2018-Jun-15 14:00N 32°05' W 081°06'2 3.2
2018-Jun-15 13:29N 32°05' W 081°04'0 0.0
2018-Jun-15 13:00N 32°05' W 081°04'0 0.0
2018-Jun-15 12:30N 32°05' W 081°04'0 0.0
2018-Jun-15 12:00N 32°05' W 081°04'0 0.0
2018-Jun-15 11:30N 32°05' W 081°04'0 0.0
2018-Jun-15 10:59N 32°05' W 081°04'0 0.0
2018-Jun-15 10:29N 32°05' W 081°04'0 0.0
2018-Jun-15 10:00N 32°05' W 081°04'0 0.0
2018-Jun-15 09:31N 32°05' W 081°04'0 0.0
2018-Jun-15 08:59N 32°05' W 081°04'0 0.0
2018-Jun-15 08:30N 32°05' W 081°04'0 0.0
2018-Jun-15 08:00N 32°05' W 081°04'0 0.0
2018-Jun-15 07:30N 32°05' W 081°04'0 0.0
2018-Jun-15 07:00N 32°05' W 081°04'0 0.0
2018-Jun-15 06:30N 32°05' W 081°04'0 0.0
2018-Jun-15 05:59N 32°05' W 081°04'0 0.0
2018-Jun-15 05:30N 32°05' W 081°04'0 0.0
2018-Jun-15 05:00N 32°05' W 081°04'0 0.0
2018-Jun-15 04:30N 32°05' W 081°04'0 0.0
2018-Jun-15 04:00N 32°05' W 081°04'0 0.0
2018-Jun-15 03:28N 32°05' W 081°04'0 0.0
2018-Jun-15 03:00N 32°05' W 081°04'0 0.0
2018-Jun-15 02:29N 32°05' W 081°04'0 0.0
2018-Jun-15 02:00N 32°05' W 081°04'0 0.0
2018-Jun-15 01:30N 32°05' W 081°04'0 0.0
2018-Jun-15 01:00N 32°05' W 081°04'0 0.0
2018-Jun-15 00:28N 32°05' W 081°04'0 0.0
2018-Jun-15 00:00N 32°05' W 081°04'0 0.0
2018-Jun-14 23:30N 32°05' W 081°04'0 0.0
2018-Jun-14 22:59N 32°05' W 081°04'0 0.0
2018-Jun-14 22:30N 32°05' W 081°04'0 0.0
2018-Jun-14 22:00N 32°05' W 081°04'0 0.0
2018-Jun-14 21:30N 32°05' W 081°04'0 0.0
2018-Jun-14 21:00N 32°05' W 081°04'0 0.0
2018-Jun-14 20:29N 32°05' W 081°04'0 0.0
2018-Jun-14 20:00N 32°05' W 081°04'0 0.0
2018-Jun-14 19:29N 32°05' W 081°04'0 0.0
2018-Jun-14 19:00N 32°05' W 081°04'0 0.0
2018-Jun-14 18:30N 32°05' W 081°04'0 0.0
2018-Jun-14 18:00N 32°05' W 081°04'0 0.0
2018-Jun-14 17:30N 32°05' W 081°04'0 0.0
2018-Jun-14 17:00N 32°05' W 081°04'0 0.0
2018-Jun-14 16:30N 32°05' W 081°04'0 0.0
2018-Jun-14 15:59N 32°05' W 081°04'0 0.0
2018-Jun-14 15:30N 32°05' W 081°04'2 4.5
2018-Jun-14 15:00N 32°06' W 081°06'3 6.9
2018-Jun-14 14:30N 32°09' W 081°09'0 0.2
2018-Jun-14 14:00N 32°09' W 081°09'0 0.4
2018-Jun-14 13:31N 32°08' W 081°09'1 1.4
2018-Jun-14 13:00N 32°08' W 081°08'0 0.0
2018-Jun-14 12:31N 32°08' W 081°08'0 0.0
2018-Jun-14 12:00N 32°08' W 081°08'0 0.3
2018-Jun-14 11:31N 32°08' W 081°08'0 0.2
2018-Jun-14 11:00N 32°08' W 081°08'0 0.6
2018-Jun-14 10:30N 32°08' W 081°09'0 0.1
2018-Jun-14 10:00N 32°08' W 081°09'1 1.4
2018-Jun-14 09:30N 32°07' W 081°08'3 5.6
2018-Jun-14 09:00N 32°05' W 081°06'2 3.5
2018-Jun-14 08:30N 32°05' W 081°04'0 0.0
2018-Jun-14 08:00N 32°05' W 081°04'0 0.0
2018-Jun-14 07:30N 32°05' W 081°04'0 0.0
2018-Jun-14 07:00N 32°05' W 081°04'0 0.0
2018-Jun-14 06:30N 32°05' W 081°04'0 0.0
2018-Jun-14 06:00N 32°05' W 081°04'0 0.0
2018-Jun-14 05:29N 32°05' W 081°04'0 0.0
2018-Jun-14 05:00N 32°05' W 081°04'0 0.0
2018-Jun-14 04:30N 32°05' W 081°04'0 0.0
2018-Jun-14 04:00N 32°05' W 081°04'0 0.0
2018-Jun-14 03:30N 32°05' W 081°04'0 0.0
2018-Jun-14 02:59N 32°05' W 081°04'0 0.0
2018-Jun-14 02:30N 32°05' W 081°04'0 0.0
2018-Jun-14 02:01N 32°05' W 081°04'0 0.0
2018-Jun-14 01:30N 32°05' W 081°04'0 0.0
2018-Jun-14 01:00N 32°05' W 081°04'0 0.0
2018-Jun-14 00:30N 32°05' W 081°04'0 0.0
2018-Jun-14 00:00N 32°05' W 081°04'0 0.0
2018-Jun-13 23:30N 32°05' W 081°04'0 0.0
2018-Jun-13 23:00N 32°05' W 081°04'0 0.0
2018-Jun-13 22:30N 32°05' W 081°04'0 0.0
2018-Jun-13 22:01N 32°05' W 081°04'0 0.0
2018-Jun-13 21:30N 32°05' W 081°04'1 2.8
2018-Jun-13 20:59N 32°05' W 081°06'3 2.2
2018-Jun-13 19:26N 32°08' W 081°08'2 4.8
2018-Jun-13 19:00N 32°06' W 081°07'3 5.3
2018-Jun-13 18:30N 32°05' W 081°04'0 0.2
2018-Jun-13 18:00N 32°05' W 081°04'0 0.0
2018-Jun-13 17:30N 32°05' W 081°04'0 0.0
2018-Jun-13 17:00N 32°05' W 081°04'0 0.0
2018-Jun-13 16:30N 32°05' W 081°04'0 0.0
2018-Jun-13 16:00N 32°05' W 081°04'0 0.0
2018-Jun-13 15:30N 32°05' W 081°04'0 0.0
2018-Jun-13 15:00N 32°05' W 081°04'0 0.0
2018-Jun-13 14:30N 32°05' W 081°04'0 0.0
2018-Jun-13 14:00N 32°05' W 081°04'0 0.0
2018-Jun-13 13:30N 32°05' W 081°04'0 0.0
2018-Jun-13 13:00N 32°05' W 081°04'0 0.0
2018-Jun-13 12:30N 32°05' W 081°04'0 0.0
2018-Jun-13 12:00N 32°05' W 081°04'3 5.2
2018-Jun-13 11:30N 32°06' W 081°07'2 3.4
2018-Jun-13 11:00N 32°07' W 081°08'2 3.1
2018-Jun-13 10:30N 32°06' W 081°07'1 1.2
2018-Jun-13 10:00N 32°06' W 081°06'0 0.0
2018-Jun-13 09:30N 32°06' W 081°06'0 0.0
2018-Jun-13 09:00N 32°06' W 081°06'0 0.0
2018-Jun-13 08:30N 32°06' W 081°06'0 0.0
2018-Jun-13 08:00N 32°06' W 081°06'0 0.4
2018-Jun-13 07:30N 32°05' W 081°06'0 0.0
2018-Jun-13 07:00N 32°05' W 081°06'0 0.0
2018-Jun-13 06:30N 32°05' W 081°06'0 0.3
2018-Jun-13 06:00N 32°06' W 081°06'1 2.9
2018-Jun-13 05:30N 32°05' W 081°05'1 1.6
2018-Jun-13 05:00N 32°05' W 081°04'0 0.0
2018-Jun-13 04:30N 32°05' W 081°04'0 0.0
2018-Jun-13 04:00N 32°05' W 081°04'0 0.0
2018-Jun-13 03:30N 32°05' W 081°04'0 0.0
2018-Jun-13 02:59N 32°05' W 081°04'0 0.0
2018-Jun-13 02:29N 32°05' W 081°04'2 5.2
2018-Jun-13 02:00N 32°06' W 081°07'2 3.7
2018-Jun-13 01:30N 32°07' W 081°08'0 0.4
2018-Jun-13 01:00N 32°07' W 081°08'0 0.4
2018-Jun-13 00:30N 32°07' W 081°08'0 0.0
2018-Jun-13 00:00N 32°07' W 081°08'0 0.6
2018-Jun-12 23:30N 32°08' W 081°08'0 0.1
2018-Jun-12 23:00N 32°08' W 081°08'0 0.4
2018-Jun-12 22:29N 32°08' W 081°08'1 1.9
2018-Jun-12 22:00N 32°07' W 081°08'4 7.7
2018-Jun-12 21:30N 32°05' W 081°04'0 0.0
2018-Jun-12 20:58N 32°05' W 081°04'0 0.0
2018-Jun-12 20:29N 32°05' W 081°04'0 0.0
2018-Jun-12 20:00N 32°05' W 081°04'0 0.0
2018-Jun-12 19:30N 32°05' W 081°04'0 0.0
2018-Jun-12 19:00N 32°05' W 081°04'0 0.0
2018-Jun-12 18:30N 32°05' W 081°04'1 1.7
2018-Jun-12 18:00N 32°05' W 081°03'2 3.7
2018-Jun-12 17:30N 32°05' W 081°05'2 3.9
2018-Jun-12 16:58N 32°06' W 081°07'2 4.2
2018-Jun-12 16:30N 32°08' W 081°08'0 0.9
2018-Jun-12 16:00N 32°08' W 081°09'1 1.8
2018-Jun-12 15:30N 32°07' W 081°08'1 1.3
2018-Jun-12 15:00N 32°08' W 081°08'2 4.9
2018-Jun-12 14:30N 32°06' W 081°07'1 1.1
2018-Jun-12 14:00N 32°06' W 081°06'0 0.0
2018-Jun-12 13:30N 32°06' W 081°06'3 5.1
2018-Jun-12 13:00N 32°08' W 081°08'0 0.6
2018-Jun-12 12:30N 32°08' W 081°08'2 3.0
2018-Jun-12 12:00N 32°07' W 081°07'2 4.3
2018-Jun-12 11:30N 32°08' W 081°09'1 2.5
2018-Jun-12 11:01N 32°07' W 081°08'2 4.9
2018-Jun-12 10:30N 32°05' W 081°06'2 4.1
2018-Jun-12 09:59N 32°05' W 081°04'2 4.5
2018-Jun-12 09:31N 32°06' W 081°01'2 4.5
2018-Jun-12 09:00N 32°05' W 081°04'0 0.0
2018-Jun-12 08:30N 32°05' W 081°04'0 0.0
2018-Jun-12 08:00N 32°05' W 081°04'0 0.0
2018-Jun-12 07:29N 32°05' W 081°04'0 0.0
2018-Jun-12 07:00N 32°05' W 081°04'0 0.0
2018-Jun-12 06:27N 32°05' W 081°04'0 0.0
2018-Jun-12 06:00N 32°05' W 081°04'0 0.0
2018-Jun-12 05:30N 32°05' W 081°04'0 0.0
2018-Jun-12 05:00N 32°05' W 081°04'0 0.0
2018-Jun-12 04:30N 32°05' W 081°04'0 0.0
2018-Jun-12 04:00N 32°05' W 081°04'0 0.0
2018-Jun-12 03:30N 32°05' W 081°04'0 0.0
2018-Jun-12 03:00N 32°05' W 081°04'0 0.0
2018-Jun-12 02:30N 32°05' W 081°04'0 0.0
2018-Jun-12 02:00N 32°05' W 081°04'0 0.0
2018-Jun-12 01:30N 32°05' W 081°04'  

Dump ship's entire track history